createdAt,value
2018-06-16T00:02:08.093Z,97329.15
2018-06-16T00:04:36.711Z,97333.16
2018-06-16T00:07:05.593Z,97327.86
2018-06-16T00:09:34.392Z,97327.78
2018-06-16T00:12:03.147Z,97335.83
2018-06-16T00:14:31.780Z,97334.53
2018-06-16T00:17:00.527Z,97329.67
2018-06-16T00:19:29.247Z,97332.71
2018-06-16T00:21:58.181Z,97334.25
2018-06-16T00:24:27.276Z,97331.13
2018-06-16T00:26:55.992Z,97331.05
2018-06-16T00:29:24.606Z,97330.30
2018-06-16T00:31:53.154Z,97328.13
2018-06-16T00:34:21.681Z,97319.53
2018-06-16T00:36:50.614Z,97325.83
2018-06-16T00:39:19.370Z,97318.80
2018-06-16T00:41:48.090Z,97312.13
2018-06-16T00:44:16.847Z,97315.81
2018-06-16T00:46:45.768Z,97311.86
2018-06-16T00:49:14.616Z,97308.02
2018-06-16T00:51:43.196Z,97309.53
2018-06-16T00:54:11.707Z,97307.50
2018-06-16T00:56:40.306Z,97304.31
2018-06-16T00:59:08.993Z,97304.91
2018-06-16T01:01:37.965Z,97308.09
2018-06-16T01:04:06.670Z,97309.61
2018-06-16T01:06:35.258Z,97308.71
2018-06-16T01:09:04.760Z,97314.89
2018-06-16T01:11:33.463Z,97312.06
2018-06-16T01:14:02.731Z,97313.13
2018-06-16T01:16:31.504Z,97314.02
2018-06-16T01:19:00.587Z,97310.44
2018-06-16T01:21:29.291Z,97309.41
2018-06-16T01:23:57.832Z,97307.64
2018-06-16T01:26:26.507Z,97304.98
2018-06-16T01:28:55.107Z,97300.91
2018-06-16T01:31:23.664Z,97299.18
2018-06-16T01:33:52.338Z,97300.16
2018-06-16T01:36:20.959Z,97298.13
2018-06-16T01:38:49.602Z,97304.39
2018-06-16T01:41:18.392Z,97303.53
2018-06-16T01:43:47.079Z,97297.39
2018-06-16T01:46:16.072Z,97296.08
2018-06-16T01:48:44.860Z,97295.95
2018-06-16T01:51:13.853Z,97291.80
2018-06-16T01:53:42.395Z,97290.59
2018-06-16T01:56:11.187Z,97282.50
2018-06-16T01:58:39.807Z,97285.95
2018-06-16T02:01:08.693Z,97289.44
2018-06-16T02:03:37.691Z,97286.72
2018-06-16T02:06:06.375Z,97290.59
2018-06-16T02:08:35.061Z,97289.31
2018-06-16T02:11:03.748Z,97285.55
2018-06-16T02:13:32.334Z,97282.55
2018-06-16T02:16:01.103Z,97286.59
2018-06-16T02:18:29.940Z,97285.66
2018-06-16T02:20:58.542Z,97290.48
2018-06-16T02:23:27.199Z,97281.38
2018-06-16T02:25:56.000Z,97280.79
2018-06-16T02:28:25.059Z,97283.23
2018-06-16T02:30:53.873Z,97283.33
2018-06-16T02:33:22.534Z,97284.61
2018-06-16T02:35:51.219Z,97282.30
2018-06-16T02:38:20.008Z,97286.63
2018-06-16T02:40:48.876Z,97287.33
2018-06-16T02:43:17.551Z,97279.39
2018-06-16T02:45:46.168Z,97279.07
2018-06-16T02:48:15.058Z,97287.36
2018-06-16T02:50:43.743Z,97286.72
2018-06-16T02:53:12.924Z,97285.35
2018-06-16T02:55:41.473Z,97285.06
2018-06-16T02:58:10.312Z,97283.76
2018-06-16T03:00:38.999Z,97283.53
2018-06-16T03:03:07.639Z,97274.45
2018-06-16T03:05:36.370Z,97270.64
2018-06-16T03:08:05.040Z,97274.02
2018-06-16T03:10:33.672Z,97273.40
2018-06-16T03:13:02.324Z,97271.58
2018-06-16T03:15:31.012Z,97267.89
2018-06-16T03:17:59.697Z,97274.45
2018-06-16T03:20:28.319Z,97276.05
2018-06-16T03:22:56.867Z,97274.61
2018-06-16T03:25:25.534Z,97279.08
2018-06-16T03:27:54.181Z,97276.50
2018-06-16T03:30:22.950Z,97287.13
2018-06-16T03:32:51.552Z,97291.66
2018-06-16T03:35:20.179Z,97290.64
2018-06-16T03:37:49.029Z,97290.42
2018-06-16T03:40:17.640Z,97300.75
2018-06-16T03:42:46.531Z,97298.53
2018-06-16T03:45:15.335Z,97300.12
2018-06-16T03:47:44.243Z,97294.87
2018-06-16T03:50:13.023Z,97296.15
2018-06-16T03:52:41.655Z,97299.20
2018-06-16T03:55:10.372Z,97293.55
2018-06-16T03:57:39.182Z,97297.20
2018-06-16T04:00:07.764Z,97286.56
2018-06-16T04:02:36.451Z,97292.95
2018-06-16T04:05:05.138Z,97291.73
2018-06-16T04:07:34.324Z,97296.77
2018-06-16T04:10:02.954Z,97302.31
2018-06-16T04:12:31.551Z,97302.67
2018-06-16T04:15:00.320Z,97300.98
2018-06-16T04:17:29.204Z,97303.13
2018-06-16T04:19:58.172Z,97300.58
2018-06-16T04:22:26.916Z,97296.60
2018-06-16T04:24:55.482Z,97297.55
2018-06-16T04:27:24.233Z,97304.08
2018-06-16T04:29:52.871Z,97297.62
2018-06-16T04:32:21.914Z,97303.83
2018-06-16T04:34:50.764Z,97303.95
2018-06-16T04:37:19.443Z,97304.02
2018-06-16T04:39:48.404Z,97302.20
2018-06-16T04:42:17.313Z,97299.16
2018-06-16T04:44:46.392Z,97305.38
2018-06-16T04:47:15.065Z,97300.58
2018-06-16T04:49:43.652Z,97295.77
2018-06-16T04:52:12.420Z,97297.55
2018-06-16T04:54:41.044Z,97301.34
2018-06-16T04:57:09.729Z,97302.27
2018-06-16T04:59:38.476Z,97301.80
2018-06-16T05:02:07.536Z,97296.70
2018-06-16T05:04:36.169Z,97301.94
2018-06-16T05:07:04.751Z,97296.49
2018-06-16T05:09:37.212Z,97296.50
2018-06-16T05:12:05.903Z,97304.22
2018-06-16T05:14:34.624Z,97309.63
2018-06-16T05:17:03.442Z,97309.33
2018-06-16T05:19:32.096Z,97306.70
2018-06-16T05:22:00.851Z,97307.59
2018-06-16T05:24:29.487Z,97311.58
2018-06-16T05:26:58.160Z,97311.95
2018-06-16T05:29:26.780Z,97302.87
2018-06-16T05:31:55.429Z,97303.65
2018-06-16T05:34:24.160Z,97302.59
2018-06-16T05:36:52.728Z,97294.30
2018-06-16T05:39:21.532Z,97295.31
2018-06-16T05:41:50.229Z,97297.80
2018-06-16T05:44:18.927Z,97305.63
2018-06-16T05:46:47.928Z,97302.92
2018-06-16T05:49:16.594Z,97299.91
2018-06-16T05:51:45.283Z,97302.53
2018-06-16T05:54:14.070Z,97301.83
2018-06-16T05:56:42.676Z,97302.73
2018-06-16T05:59:11.536Z,97300.58
2018-06-16T06:01:40.171Z,97305.29
2018-06-16T06:04:08.743Z,97304.11
2018-06-16T06:06:37.415Z,97309.97
2018-06-16T06:09:08.099Z,97308.89
2018-06-16T06:11:37.231Z,97316.77
2018-06-16T06:14:07.524Z,97321.09
2018-06-16T06:16:39.659Z,97318.91
2018-06-16T06:19:12.371Z,97312.67
2018-06-16T06:21:45.252Z,97319.87
2018-06-16T06:24:17.491Z,97316.63
2018-06-16T06:26:46.529Z,97317.55
2018-06-16T06:29:18.026Z,97319.66
2018-06-16T06:31:50.353Z,97316.27
2018-06-16T06:34:21.290Z,97318.30
2018-06-16T06:36:53.207Z,97317.59
2018-06-16T06:39:24.369Z,97318.37
2018-06-16T06:41:54.975Z,97326.68
2018-06-16T06:44:26.456Z,97320.80
2018-06-16T06:46:56.832Z,97326.78
2018-06-16T06:49:27.649Z,97327.06
2018-06-16T06:51:57.874Z,97328.11
2018-06-16T06:54:29.363Z,97318.57
2018-06-16T06:57:01.382Z,97325.05
2018-06-16T06:59:30.037Z,97326.33
2018-06-16T07:01:58.645Z,97324.98
2018-06-16T07:04:27.428Z,97317.95
2018-06-16T07:06:55.980Z,97315.11
2018-06-16T07:09:25.030Z,97311.75
2018-06-16T07:11:53.736Z,97312.12
2018-06-16T07:14:22.352Z,97312.50
2018-06-16T07:16:51.179Z,97317.48
2018-06-16T07:19:19.878Z,97321.61
2018-06-16T07:21:48.564Z,97314.20
2018-06-16T07:24:17.184Z,97316.23
2018-06-16T07:26:46.030Z,97313.38
2018-06-16T07:29:15.263Z,97318.61
2018-06-16T07:31:45.098Z,97318.00
2018-06-16T07:34:16.468Z,97316.27
2018-06-16T07:36:45.380Z,97317.70
2018-06-16T07:39:16.199Z,97315.95
2018-06-16T07:41:45.709Z,97317.52
2018-06-16T07:44:14.363Z,97316.02
2018-06-16T07:46:46.712Z,97316.98
2018-06-16T07:49:21.406Z,97309.54
2018-06-16T07:51:53.679Z,97314.27
2018-06-16T07:54:25.400Z,97307.91
2018-06-16T07:56:57.330Z,97313.56
2018-06-16T07:59:27.013Z,97313.89
2018-06-16T08:01:59.400Z,97312.75
2018-06-16T08:04:30.219Z,97315.53
2018-06-16T08:07:02.276Z,97309.16
2018-06-16T08:09:32.268Z,97311.30
2018-06-16T08:12:05.809Z,97318.95
2018-06-16T08:14:36.976Z,97315.49
2018-06-16T08:17:09.449Z,97315.91
2018-06-16T08:19:42.163Z,97314.11
2018-06-16T08:22:15.912Z,97313.22
2018-06-16T08:24:47.186Z,97315.16
2018-06-16T08:27:15.915Z,97315.17
2018-06-16T08:29:48.203Z,97321.84
2018-06-16T08:32:21.078Z,97322.12
2018-06-16T08:34:51.423Z,97316.84
2018-06-16T08:37:22.292Z,97318.91
2018-06-16T08:39:53.769Z,97314.38
2018-06-16T08:42:24.161Z,97318.97
2018-06-16T08:44:55.264Z,97322.95
2018-06-16T08:47:26.070Z,97317.64
2018-06-16T08:49:56.630Z,97325.83
2018-06-16T08:52:25.314Z,97320.88
2018-06-16T08:54:55.304Z,97320.64
2018-06-16T08:57:25.346Z,97313.88
2018-06-16T08:59:55.878Z,97324.98
2018-06-16T09:02:24.460Z,97323.85
2018-06-16T09:04:53.063Z,97316.00
2018-06-16T09:07:21.775Z,97325.53
2018-06-16T09:09:50.512Z,97319.53
2018-06-16T09:12:20.559Z,97315.03
2018-06-16T09:14:52.859Z,97312.66
2018-06-16T09:17:21.559Z,97311.37
2018-06-16T09:19:50.131Z,97308.61
2018-06-16T09:22:18.919Z,97313.73
2018-06-16T09:24:47.624Z,97314.34
2018-06-16T09:27:16.714Z,97322.27
2018-06-16T09:29:45.415Z,97314.41
2018-06-16T09:32:14.145Z,97315.45
2018-06-16T09:34:43.107Z,97308.41
2018-06-16T09:37:11.921Z,97309.73
2018-06-16T09:39:41.095Z,97315.31
2018-06-16T09:45:41.828Z,97313.40
2018-06-16T09:48:10.655Z,97306.01
2018-06-16T09:50:39.411Z,97303.48
2018-06-16T09:53:08.115Z,97308.59
2018-06-16T09:55:36.690Z,97303.59
2018-06-16T09:58:06.204Z,97305.67
2018-06-16T10:00:41.305Z,97305.05
2018-06-16T10:03:11.110Z,97306.16
2018-06-16T10:05:40.255Z,97310.09
2018-06-16T10:08:09.000Z,97306.75
2018-06-16T10:10:37.857Z,97312.08
2018-06-16T10:13:06.710Z,97307.36
2018-06-16T10:15:35.423Z,97309.26
2018-06-16T10:18:04.002Z,97312.93
2018-06-16T10:20:32.807Z,97312.96
2018-06-16T10:23:01.534Z,97311.64
2018-06-16T10:25:30.146Z,97303.63
2018-06-16T10:27:59.311Z,97307.84
2018-06-16T10:30:28.183Z,97297.16
2018-06-16T10:32:56.996Z,97292.75
2018-06-16T10:35:25.695Z,97292.75
2018-06-16T10:37:54.443Z,97300.27
2018-06-16T10:40:23.275Z,97301.60
2018-06-16T10:42:52.000Z,97291.65
2018-06-16T10:45:21.081Z,97290.59
2018-06-16T10:47:49.972Z,97293.84
2018-06-16T10:50:18.743Z,97283.51
2018-06-16T10:52:47.617Z,97287.64
2018-06-16T10:55:16.319Z,97284.05
2018-06-16T10:57:45.422Z,97285.04
2018-06-16T11:00:14.540Z,97286.34
2018-06-16T11:02:43.408Z,97288.05
2018-06-16T11:05:12.644Z,97281.64
2018-06-16T11:07:41.859Z,97281.66
2018-06-16T11:10:10.468Z,97278.39
2018-06-16T11:12:39.219Z,97272.75
2018-06-16T11:15:07.959Z,97270.95
2018-06-16T11:17:36.858Z,97270.16
2018-06-16T11:20:05.892Z,97264.17
2018-06-16T11:22:34.730Z,97267.41
2018-06-16T11:25:03.828Z,97270.34
2018-06-16T11:27:32.456Z,97261.84
2018-06-16T11:30:01.710Z,97258.03
2018-06-16T11:32:30.575Z,97255.28
2018-06-16T11:34:59.390Z,97252.84
2018-06-16T11:37:28.032Z,97253.67
2018-06-16T11:39:56.664Z,97253.69
2018-06-16T11:42:25.411Z,97246.98
2018-06-16T11:44:54.040Z,97245.62
2018-06-16T11:47:22.571Z,97237.22
2018-06-16T11:49:51.195Z,97238.95
2018-06-16T11:52:20.045Z,97231.20
2018-06-16T11:54:48.752Z,97233.26
2018-06-16T11:57:17.908Z,97221.66
2018-06-16T11:59:46.676Z,97221.13
2018-06-16T12:02:15.460Z,97217.44
2018-06-16T12:04:44.437Z,97219.34
2018-06-16T12:07:13.404Z,97224.09
2018-06-16T12:09:42.160Z,97209.48
2018-06-16T12:12:11.120Z,97206.06
2018-06-16T12:14:39.992Z,97202.41
2018-06-16T12:17:09.013Z,97207.66
2018-06-16T12:19:37.837Z,97205.91
2018-06-16T12:22:06.525Z,97199.72
2018-06-16T12:24:35.277Z,97195.67
2018-06-16T12:27:03.945Z,97204.93
2018-06-16T12:29:32.668Z,97198.50
2018-06-16T12:32:01.502Z,97201.30
2018-06-16T12:34:30.166Z,97199.20
2018-06-16T12:36:58.888Z,97194.34
2018-06-16T12:39:27.604Z,97194.44
2018-06-16T12:41:56.316Z,97202.27
2018-06-16T12:44:25.152Z,97184.28
2018-06-16T12:46:53.896Z,97202.45
2018-06-16T12:49:26.518Z,97198.61
2018-06-16T12:51:55.088Z,97192.38
2018-06-16T12:54:23.732Z,97198.61
2018-06-16T12:56:52.373Z,97191.44
2018-06-16T12:59:21.361Z,97186.93
2018-06-16T13:01:50.100Z,97183.98
2018-06-16T13:04:19.041Z,97188.66
2018-06-16T13:06:48.166Z,97192.06
2018-06-16T13:09:16.854Z,97189.46
2018-06-16T13:11:45.582Z,97192.06
2018-06-16T13:14:14.379Z,97190.72
2018-06-16T13:16:46.704Z,97189.88
2018-06-16T13:19:15.847Z,97193.21
2018-06-16T13:21:44.605Z,97184.94
2018-06-16T13:24:20.359Z,97187.69
2018-06-16T13:26:48.932Z,97181.45
2018-06-16T13:29:17.833Z,97185.99
2018-06-16T13:31:47.171Z,97187.16
2018-06-16T13:34:15.855Z,97185.06
2018-06-16T13:36:44.794Z,97180.59
2018-06-16T13:39:13.506Z,97187.59
2018-06-16T13:41:42.807Z,97188.50
2018-06-16T13:44:12.726Z,97182.63
2018-06-16T13:46:41.399Z,97181.48
2018-06-16T13:49:10.259Z,97178.56
2018-06-16T13:51:38.918Z,97185.02
2018-06-16T13:54:08.293Z,97180.39
2018-06-16T13:56:37.388Z,97179.41
2018-06-16T13:59:06.065Z,97172.53
2018-06-16T14:01:35.116Z,97178.67
2018-06-16T14:04:03.740Z,97180.63
2018-06-16T14:06:32.406Z,97180.50
2018-06-16T14:09:01.172Z,97183.24
2018-06-16T14:11:30.044Z,97176.91
2018-06-16T14:13:58.780Z,97173.25
2018-06-16T14:16:27.913Z,97177.87
2018-06-16T14:18:56.498Z,97175.09
2018-06-16T14:21:25.160Z,97172.96
2018-06-16T14:23:57.982Z,97175.59
2018-06-16T14:26:30.684Z,97173.77
2018-06-16T14:28:59.427Z,97174.21
2018-06-16T14:31:28.137Z,97177.47
2018-06-16T14:33:57.124Z,97169.02
2018-06-16T14:36:27.441Z,97178.05
2018-06-16T14:38:56.762Z,97174.75
2018-06-16T14:41:25.868Z,97171.22
2018-06-16T14:43:55.408Z,97169.48
2018-06-16T14:46:24.176Z,97174.91
2018-06-16T14:48:52.932Z,97168.09
2018-06-16T14:51:21.556Z,97168.53
2018-06-16T14:53:50.218Z,97166.38
2018-06-16T14:56:18.819Z,97165.77
2018-06-16T14:58:47.448Z,97161.70
2018-06-16T15:01:16.047Z,97161.02
2018-06-16T15:03:44.810Z,97160.62
2018-06-16T15:06:13.420Z,97160.84
2018-06-16T15:08:42.350Z,97160.80
2018-06-16T15:11:10.976Z,97162.52
2018-06-16T15:13:39.647Z,97163.96
2018-06-16T15:16:09.135Z,97164.45
2018-06-16T15:18:39.671Z,97154.36
2018-06-16T15:21:08.620Z,97156.17
2018-06-16T15:23:37.291Z,97151.11
2018-06-16T15:26:06.080Z,97152.13
2018-06-16T15:28:34.692Z,97142.92
2018-06-16T15:31:03.249Z,97143.67
2018-06-16T15:33:31.932Z,97143.66
2018-06-16T15:36:00.797Z,97147.30
2018-06-16T15:38:29.395Z,97140.42
2018-06-16T15:40:58.320Z,97137.86
2018-06-16T15:43:26.933Z,97147.52
2018-06-16T15:45:55.953Z,97142.02
2018-06-16T15:48:24.612Z,97144.10
2018-06-16T15:50:53.244Z,97141.09
2018-06-16T15:53:22.003Z,97134.70
2018-06-16T15:55:51.359Z,97129.53
2018-06-16T15:58:20.624Z,97131.14
2018-06-16T16:00:49.801Z,97130.19
2018-06-16T16:03:18.968Z,97132.38
2018-06-16T16:05:48.216Z,97135.16
2018-06-16T16:08:16.879Z,97135.74
2018-06-16T16:10:45.804Z,97133.86
2018-06-16T16:13:14.827Z,97130.02
2018-06-16T16:15:44.201Z,97129.98
2018-06-16T16:18:12.831Z,97130.14
2018-06-16T16:20:41.472Z,97131.95
2018-06-16T16:23:10.684Z,97128.06
2018-06-16T16:25:40.000Z,97130.45
2018-06-16T16:28:08.892Z,97128.36
2018-06-16T16:30:37.524Z,97130.55
2018-06-16T16:33:06.355Z,97134.12
2018-06-16T16:35:35.100Z,97133.00
2018-06-16T16:38:04.029Z,97140.56
2018-06-16T16:40:32.912Z,97133.79
2018-06-16T16:43:01.632Z,97137.55
2018-06-16T16:45:30.421Z,97137.48
2018-06-16T16:47:59.360Z,97135.63
2018-06-16T16:50:28.525Z,97132.96
2018-06-16T16:52:57.143Z,97138.39
2018-06-16T16:55:25.842Z,97137.59
2018-06-16T16:57:54.456Z,97144.38
2018-06-16T17:00:23.275Z,97141.16
2018-06-16T17:02:52.199Z,97135.00
2018-06-16T17:05:21.280Z,97139.16
2018-06-16T17:07:50.276Z,97141.92
2018-06-16T17:10:18.881Z,97131.79
2018-06-16T17:12:48.196Z,97131.28
2018-06-16T17:15:17.112Z,97139.34
2018-06-16T17:17:53.312Z,97136.40
2018-06-16T17:20:22.112Z,97132.80
2018-06-16T17:22:50.727Z,97138.41
2018-06-16T17:25:19.760Z,97134.50
2018-06-16T17:27:48.300Z,97139.39
2018-06-16T17:30:17.451Z,97132.95
2018-06-16T17:32:46.047Z,97134.77
2018-06-16T17:35:15.638Z,97140.45
2018-06-16T17:37:44.240Z,97148.47
2018-06-16T17:40:12.929Z,97149.13
2018-06-16T17:42:41.593Z,97151.70
2018-06-16T17:45:10.147Z,97152.69
2018-06-16T17:47:38.880Z,97154.00
2018-06-16T17:50:07.531Z,97149.63
2018-06-16T17:52:36.195Z,97149.95
2018-06-16T17:55:05.084Z,97153.84
2018-06-16T17:57:34.543Z,97151.89
2018-06-16T18:00:03.204Z,97153.66
2018-06-16T18:02:31.855Z,97158.51
2018-06-16T18:05:00.498Z,97157.84
2018-06-16T18:07:29.376Z,97158.48
2018-06-16T18:09:57.909Z,97154.55
2018-06-16T18:12:26.505Z,97154.50
2018-06-16T18:14:55.072Z,97160.48
2018-06-16T18:17:23.832Z,97161.16
2018-06-16T18:19:52.694Z,97163.11
2018-06-16T18:22:21.337Z,97163.22
2018-06-16T18:24:50.155Z,97164.16
2018-06-16T18:27:18.855Z,97166.30
2018-06-16T18:29:50.088Z,97164.97
2018-06-16T18:32:19.095Z,97162.41
2018-06-16T18:34:47.731Z,97164.52
2018-06-16T18:37:16.327Z,97162.20
2018-06-16T18:39:45.127Z,97164.80
2018-06-16T18:42:13.664Z,97163.64
2018-06-16T18:44:42.237Z,97163.88
2018-06-16T18:47:11.184Z,97165.09
2018-06-16T18:49:39.733Z,97170.59
2018-06-16T18:52:08.395Z,97170.08
2018-06-16T18:54:37.184Z,97172.48
2018-06-16T18:57:06.184Z,97171.38
2018-06-16T18:59:34.831Z,97173.33
2018-06-16T19:02:03.559Z,97178.34
2018-06-16T19:04:32.104Z,97175.07
2018-06-16T19:07:00.640Z,97177.59
2018-06-16T19:09:29.352Z,97179.41
2018-06-16T19:11:57.980Z,97183.92
2018-06-16T19:14:26.711Z,97185.69
2018-06-16T19:16:55.487Z,97186.43
2018-06-16T19:19:24.766Z,97183.66
2018-06-16T19:21:53.631Z,97187.69
2018-06-16T19:24:22.291Z,97184.50
2018-06-16T19:26:50.859Z,97183.67
2018-06-16T19:29:19.443Z,97185.19
2018-06-16T19:31:48.019Z,97188.38
2018-06-16T19:34:16.868Z,97194.03
2018-06-16T19:36:45.623Z,97194.27
2018-06-16T19:39:14.188Z,97194.56
2018-06-16T19:41:42.780Z,97198.27
2018-06-16T19:44:11.456Z,97205.36
2018-06-16T19:46:40.136Z,97207.47
2018-06-16T19:49:09.064Z,97207.05
2018-06-16T19:51:37.802Z,97206.70
2018-06-16T19:54:06.724Z,97211.33
2018-06-16T19:56:35.396Z,97210.30
2018-06-16T19:59:03.999Z,97209.06
2018-06-16T20:01:32.519Z,97209.48
2018-06-16T20:04:01.312Z,97216.06
2018-06-16T20:06:29.979Z,97218.29
2018-06-16T20:08:58.900Z,97218.33
2018-06-16T20:11:27.655Z,97220.16
2018-06-16T20:13:56.208Z,97224.72
2018-06-16T20:16:24.791Z,97223.23
2018-06-16T20:18:54.718Z,97234.25
2018-06-16T20:21:23.789Z,97232.77
2018-06-16T20:23:52.840Z,97230.12
2018-06-16T20:26:30.952Z,97234.86
2018-06-16T20:29:03.856Z,97235.48
2018-06-16T20:31:32.571Z,97244.25
2018-06-16T20:34:01.346Z,97242.77
2018-06-16T20:36:29.964Z,97241.20
2018-06-16T20:38:58.632Z,97243.34
2018-06-16T20:41:27.946Z,97242.80
2018-06-16T20:43:56.879Z,97244.33
2018-06-16T20:46:26.251Z,97243.98
2018-06-16T20:48:55.284Z,97252.09
2018-06-16T20:51:24.262Z,97252.48
2018-06-16T20:53:53.095Z,97251.54
2018-06-16T20:56:22.287Z,97255.62
2018-06-16T20:58:51.618Z,97253.30
2018-06-16T21:01:20.710Z,97247.86
2018-06-16T21:03:49.797Z,97249.34
2018-06-16T21:06:19.191Z,97253.92
2018-06-16T21:08:47.871Z,97255.05
2018-06-16T21:11:16.561Z,97253.84
2018-06-16T21:13:45.527Z,97249.02
2018-06-16T21:16:14.232Z,97250.19
2018-06-16T21:18:43.154Z,97251.41
2018-06-16T21:21:11.872Z,97253.25
2018-06-16T21:23:40.647Z,97257.02
2018-06-16T21:26:09.299Z,97259.04
2018-06-16T21:28:37.864Z,97254.80
2018-06-16T21:31:06.540Z,97253.04
2018-06-16T21:33:35.420Z,97256.50
2018-06-16T21:36:04.088Z,97250.50
2018-06-16T21:41:00.141Z,97259.91
2018-06-16T21:43:28.827Z,97257.05
2018-06-16T21:45:57.445Z,97253.11
2018-06-16T21:48:26.104Z,97251.71
2018-06-16T21:50:54.868Z,97254.07
2018-06-16T21:53:23.575Z,97252.46
2018-06-16T21:55:52.428Z,97253.64
2018-06-16T21:58:21.167Z,97254.39
2018-06-16T22:00:49.777Z,97259.83
2018-06-16T22:03:18.905Z,97268.89
2018-06-16T22:05:47.541Z,97262.47
2018-06-16T22:08:25.478Z,97268.38
2018-06-16T22:10:54.393Z,97266.84
2018-06-16T22:13:23.025Z,97265.84
2018-06-16T22:15:51.944Z,97269.33
2018-06-16T22:18:20.539Z,97277.34
2018-06-16T22:20:49.208Z,97281.78
2018-06-16T22:23:17.785Z,97282.16
2018-06-16T22:25:46.626Z,97287.41
2018-06-16T22:28:15.251Z,97282.60
2018-06-16T22:30:43.871Z,97291.00
2018-06-16T22:33:12.752Z,97286.34
2018-06-16T22:35:41.453Z,97292.31
2018-06-16T22:38:10.034Z,97291.49
2018-06-16T22:40:38.755Z,97297.56
2018-06-16T22:43:07.344Z,97289.15
2018-06-16T22:45:36.440Z,97286.67
2018-06-16T22:48:05.141Z,97290.53
2018-06-16T22:50:33.840Z,97282.91
2018-06-16T22:53:02.413Z,97287.13
2018-06-16T22:55:31.054Z,97296.49
2018-06-16T22:57:59.748Z,97297.55
2018-06-16T23:00:29.188Z,97298.19
2018-06-16T23:02:58.932Z,97299.70
2018-06-16T23:05:27.612Z,97304.72
2018-06-16T23:07:56.251Z,97307.31
2018-06-16T23:10:25.497Z,97308.13
2018-06-16T23:12:54.163Z,97307.41
2018-06-16T23:15:22.896Z,97300.67
2018-06-16T23:17:51.623Z,97300.24
2018-06-16T23:20:20.187Z,97299.00
2018-06-16T23:22:49.182Z,97303.89
2018-06-16T23:25:17.876Z,97295.31
2018-06-16T23:27:46.547Z,97300.05
2018-06-16T23:30:15.324Z,97297.05
2018-06-16T23:32:44.129Z,97304.54
2018-06-16T23:35:12.716Z,97301.28
2018-06-16T23:37:41.387Z,97301.88
2018-06-16T23:40:09.985Z,97300.83
2018-06-16T23:42:38.536Z,97302.25
2018-06-16T23:45:07.400Z,97306.56
2018-06-16T23:47:36.051Z,97303.40
2018-06-16T23:50:04.820Z,97302.70
2018-06-16T23:52:33.568Z,97299.77
2018-06-16T23:55:02.228Z,97298.56
2018-06-16T23:57:31.007Z,97299.85
2018-06-16T23:59:59.828Z,97295.89
